Time;durP1;ratioP1;P1;durP2;ratioP2;P2;SDS_P1;SDS_P2;PMS_P1;PMS_P2;Temp;Humidity;BMP_temperature;BMP_pressure;BME280_temperature;BME280_humidity;BME280_pressure;Samples;Min_cycle;Max_cycle;Signal;HPM_P1;HPM_P2
2022/02/02 00:03:31;;;;;;;6.90;6.20;;;;;;;0.91;85.75;97564.56;208507;1314;139749;-74
2022/02/02 00:41:48;;;;;;;11.80;9.20;;;;;;;0.63;88.05;97574.98;207987;1355;684391;-69
2022/02/02 00:46:56;;;;;;;13.60;9.00;;;;;;;0.71;87.95;97576.03;205311;1329;139334;-70
2022/02/02 00:52:26;;;;;;;10.10;8.60;;;;;;;0.86;87.71;97576.70;201128;1327;5362939;-70
2022/02/02 00:57:30;;;;;;;7.50;5.70;;;;;;;1.02;87.80;97574.67;205548;1331;141106;-68
2022/02/02 01:02:33;;;;;;;7.20;5.40;;;;;;;1.11;87.70;97582.40;205291;1327;138250;-69
2022/02/02 01:18:27;;;;;;;6.50;5.30;;;;;;;1.41;87.36;97592.23;208035;1316;139066;-74
2022/02/02 01:28:52;;;;;;;10.40;8.80;;;;;;;1.50;87.08;97585.87;208115;1316;138619;-71
2022/02/02 01:33:56;;;;;;;9.40;6.50;;;;;;;1.58;87.16;97591.80;207934;1316;139580;-72
2022/02/02 01:38:58;;;;;;;11.20;7.20;;;;;;;1.63;87.20;97597.02;209473;1316;138210;-75
2022/02/02 01:44:14;;;;;;;11.00;7.70;;;;;;;1.67;87.16;97601.42;207986;1317;140939;-76
2022/02/02 01:55:10;;;;;;;10.60;8.80;;;;;;;1.76;87.02;97593.88;208581;1316;140112;-71
2022/02/02 02:00:50;;;;;;;8.50;6.40;;;;;;;1.82;86.83;97592.55;207530;1316;139017;-70
2022/02/02 02:05:52;;;;;;;5.70;3.90;;;;;;;1.85;86.79;97591.07;208579;1316;139802;-72
2022/02/02 02:10:57;;;;;;;10.50;8.40;;;;;;;1.82;87.04;97595.02;208095;1319;139843;-71
2022/02/02 02:16:04;;;;;;;9.10;6.90;;;;;;;1.84;87.28;97601.56;207404;1316;139302;-80
2022/02/02 02:21:12;;;;;;;12.30;8.40;;;;;;;1.88;87.04;97603.48;207371;1317;140309;-77
2022/02/02 02:26:23;;;;;;;10.60;8.50;;;;;;;1.93;87.12;97603.89;207735;1318;139856;-77
2022/02/02 02:57:56;;;;;;;10.10;6.20;;;;;;;2.08;86.94;97600.86;208368;1316;139140;-73
2022/02/02 03:30:03;;;;;;;12.20;6.20;;;;;;;2.02;87.32;97617.50;207791;1315;139757;-69
2022/02/02 03:56:36;;;;;;;6.60;3.10;;;;;;;2.17;87.23;97631.52;208734;1316;140851;-83
2022/02/02 04:07:08;;;;;;;8.90;3.00;;;;;;;2.15;87.32;97639.46;208836;1317;138680;-70
2022/02/02 04:12:40;;;;;;;6.90;5.30;;;;;;;2.19;87.33;97632.86;207612;1315;140972;-69
2022/02/02 04:18:07;;;;;;;7.80;3.10;;;;;;;2.18;87.27;97635.38;208549;1316;140137;-71
2022/02/02 04:55:25;;;;;;;9.60;4.10;;;;;;;2.20;87.88;97661.91;208260;1316;139248;-69
2022/02/02 05:12:49;;;;;;;7.00;1.80;;;;;;;2.29;87.38;97666.79;207385;1316;139000;-68
2022/02/02 05:49:16;;;;;;;3.90;2.90;;;;;;;2.40;87.54;97681.33;208178;1315;139403;-71
2022/02/02 05:54:19;;;;;;;6.50;2.20;;;;;;;2.39;87.56;97684.34;209602;1315;139651;-72
2022/02/02 05:59:24;;;;;;;8.80;3.20;;;;;;;2.40;87.48;97690.42;208594;1315;139666;-73
2022/02/02 06:04:29;;;;;;;7.70;2.20;;;;;;;2.44;87.24;97697.22;209377;1316;140525;-73
2022/02/02 06:09:37;;;;;;;6.90;2.30;;;;;;;2.41;87.09;97708.16;209451;1316;139731;-73
2022/02/02 06:14:44;;;;;;;10.50;2.50;;;;;;;2.43;87.19;97714.29;209029;1311;139641;-75
2022/02/02 06:19:50;;;;;;;4.20;2.50;;;;;;;2.49;87.57;97719.23;208222;1316;140268;-74
2022/02/02 06:25:08;;;;;;;6.90;2.70;;;;;;;2.48;87.07;97734.67;207968;1316;139749;-70
2022/02/02 06:30:17;;;;;;;4.50;1.80;;;;;;;2.47;87.15;97731.54;208236;1316;140060;-71
2022/02/02 06:35:21;;;;;;;7.50;2.70;;;;;;;2.49;87.11;97737.91;207700;1317;139610;-73
2022/02/02 06:40:29;;;;;;;6.80;3.60;;;;;;;2.45;87.08;97744.34;208017;1315;140517;-71
2022/02/02 06:45:35;;;;;;;3.60;3.00;;;;;;;2.47;87.46;97739.66;208080;1316;138586;-72
2022/02/02 06:50:55;;;;;;;7.60;3.00;;;;;;;2.51;87.57;97745.22;208630;1316;138976;-75
2022/02/02 06:56:45;;;;;;;6.30;2.50;;;;;;;2.53;87.46;97768.03;208735;1312;139308;-76
2022/02/02 07:08:37;;;;;;;7.50;1.90;;;;;;;2.58;87.13;97774.46;207075;1315;139514;-72
2022/02/02 07:13:48;;;;;;;8.90;3.30;;;;;;;2.56;87.39;97771.67;207050;1315;139373;-67
2022/02/02 07:19:02;;;;;;;8.70;3.60;;;;;;;2.60;87.45;97780.45;207294;1315;140206;-77
2022/02/02 07:24:23;;;;;;;9.70;4.00;;;;;;;2.59;87.32;97788.64;207648;1316;151742;-71
2022/02/02 07:31:19;;;;;;;11.30;3.60;;;;;;;2.60;87.38;97795.71;208368;1315;139682;-69
2022/02/02 07:35:13;;;;;;;9.90;3.50;;;;;;;2.60;87.21;97801.17;207384;1315;139391;-73
2022/02/02 07:40:26;;;;;;;11.90;5.00;;;;;;;2.68;87.67;97816.50;208127;1315;139457;-72
2022/02/02 07:45:34;;;;;;;11.40;3.50;;;;;;;2.82;87.48;97823.83;209212;1315;138904;-71
2022/02/02 07:50:36;;;;;;;9.90;5.10;;;;;;;2.88;87.04;97831.90;209183;1315;139943;-70
2022/02/02 07:55:43;;;;;;;11.00;4.60;;;;;;;2.90;87.12;97838.49;208392;1315;141109;-70
2022/02/02 08:00:46;;;;;;;9.00;2.90;;;;;;;2.89;86.99;97841.52;209077;1315;139998;-70
2022/02/02 08:06:02;;;;;;;9.60;3.20;;;;;;;2.86;86.91;97849.34;208718;1316;143352;-69
2022/02/02 08:11:10;;;;;;;6.70;2.00;;;;;;;2.84;86.74;97858.40;207216;1315;140496;-70
2022/02/02 08:16:15;;;;;;;8.20;3.00;;;;;;;2.78;86.24;97861.27;209564;1316;141575;-71
2022/02/02 08:21:48;;;;;;;12.80;4.90;;;;;;;2.70;86.86;97870.53;208181;1312;139706;-68
2022/02/02 08:33:00;;;;;;;8.20;4.10;;;;;;;2.75;86.44;97882.94;207571;1355;684670;-75
2022/02/02 08:43:54;;;;;;;8.30;3.10;;;;;;;2.76;86.52;97901.37;205547;1328;287977;-73
2022/02/02 08:49:17;;;;;;;8.80;4.80;;;;;;;2.90;86.52;97906.38;204599;1328;140309;-76
2022/02/02 08:54:31;;;;;;;10.50;3.80;;;;;;;3.00;86.60;97920.83;205538;1328;138363;-72
2022/02/02 09:00:09;;;;;;;7.90;4.20;;;;;;;3.06;86.66;97924.79;204763;1328;141638;-75
2022/02/02 09:05:24;;;;;;;6.80;4.50;;;;;;;3.14;86.87;97931.52;204941;1328;139123;-74
2022/02/02 09:32:36;;;;;;;3.80;2.50;;;;;;;2.98;86.19;97971.09;204741;1328;140176;-74
2022/02/02 09:37:39;;;;;;;5.40;2.80;;;;;;;3.11;86.19;97974.77;205686;1328;139689;-73
2022/02/02 09:42:42;;;;;;;2.70;2.10;;;;;;;3.17;86.03;97982.89;204815;1327;140243;-71
2022/02/02 09:47:54;;;;;;;2.20;2.10;;;;;;;3.22;85.89;97993.79;205134;1328;140795;-72
2022/02/02 09:53:00;;;;;;;3.50;2.40;;;;;;;3.34;85.83;98009.85;204360;1328;139522;-70
2022/02/02 10:10:00;;;;;;;3.60;2.60;;;;;;;3.58;85.31;98038.84;204823;1328;142017;-70
2022/02/02 10:14:39;;;;;;;4.00;2.70;;;;;;;3.46;84.97;98043.40;207155;1328;139707;-73
2022/02/02 10:19:45;;;;;;;8.70;6.60;;;;;;;3.34;84.83;98050.48;205211;1328;140606;-70
2022/02/02 10:24:55;;;;;;;4.40;3.00;;;;;;;3.23;84.50;98051.21;206810;1328;140640;-73
2022/02/02 10:30:26;;;;;;;4.90;4.40;;;;;;;3.20;84.82;98061.35;205834;1328;138819;-74
2022/02/02 10:36:11;;;;;;;;;;;;;;;;;;;;;
2022/02/02 10:41:31;;;;;;;4.20;3.30;;;;;;;3.44;84.58;98076.86;206285;1328;139721;-73
2022/02/02 10:47:10;;;;;;;4.10;2.60;;;;;;;3.67;84.45;98089.34;205113;1328;140605;-72
2022/02/02 10:53:22;;;;;;;1.70;1.60;;;;;;;3.69;84.14;98095.86;207086;1325;140333;-73
2022/02/02 10:58:21;;;;;;;2.90;2.60;;;;;;;3.56;83.75;98102.44;205406;1328;141044;-72
2022/02/02 11:08:51;;;;;;;2.20;1.50;;;;;;;3.54;83.66;98119.20;205032;1328;140019;-67
2022/02/02 11:14:02;;;;;;;2.10;1.90;;;;;;;3.61;83.61;98128.33;204910;1326;140526;-72
2022/02/02 11:19:14;;;;;;;3.80;2.40;;;;;;;3.70;83.32;98136.79;204667;1328;141716;-70
2022/02/02 11:24:24;;;;;;;2.50;2.10;;;;;;;3.81;83.22;98148.85;204896;1326;140582;-68
2022/02/02 11:29:43;;;;;;;2.80;2.10;;;;;;;3.90;83.09;98160.23;204621;1328;141089;-71
2022/02/02 11:41:36;;;;;;;;;;;;;;;;;;;;;
2022/02/02 11:46:51;;;;;;;3.90;2.30;;;;;;;3.94;82.06;98187.24;204888;1330;140475;-72
2022/02/02 11:52:02;;;;;;;3.50;3.20;;;;;;;3.85;82.22;98195.75;205483;1329;140056;-71
2022/02/02 11:57:16;;;;;;;2.90;2.70;;;;;;;3.88;82.29;98212.69;205142;1326;141534;-69
2022/02/02 12:09:28;;;;;;;6.00;3.60;;;;;;;3.96;82.17;98232.80;205473;1328;140528;-74
2022/02/02 13:03:23;;;;;;;10.40;3.10;;;;;;;3.63;80.79;98366.83;204989;1328;139602;-72
2022/02/02 13:08:28;;;;;;;5.10;3.20;;;;;;;3.60;81.04;98376.15;204889;1328;139039;-70
2022/02/02 13:13:50;;;;;;;2.30;2.00;;;;;;;3.55;80.83;98386.42;205380;1328;139300;-69
2022/02/02 13:19:18;;;;;;;3.70;3.30;;;;;;;3.45;80.79;98400.36;205330;1328;140510;-70
2022/02/02 13:24:43;;;;;;;;;;;;;;;3.35;80.55;98413.48;204936;1328;139297;-69
2022/02/02 13:29:49;;;;;;;5.60;3.90;;;;;;;3.20;80.45;98432.86;206736;1326;127301;-71
2022/02/02 13:35:13;;;;;;;5.20;4.70;;;;;;;3.15;80.54;98442.85;204770;1328;140980;-67
2022/02/02 13:57:05;;;;;;;7.10;4.60;;;;;;;3.04;80.06;98494.73;204315;1328;139686;-71
2022/02/02 14:07:46;;;;;;;5.30;3.80;;;;;;;2.88;80.25;98522.96;205136;1325;139891;-71
2022/02/02 14:34:12;;;;;;;5.80;4.40;;;;;;;2.67;80.53;98594.16;207126;1324;139436;-69
2022/02/02 14:39:28;;;;;;;4.10;3.80;;;;;;;2.63;80.63;98607.66;207759;1324;139472;-68
2022/02/02 14:44:42;;;;;;;7.80;4.60;;;;;;;2.59;80.58;98624.60;206917;1325;158905;-69
2022/02/02 14:50:19;;;;;;;10.40;5.80;;;;;;;2.58;80.36;98644.10;205518;1324;141701;-68
2022/02/02 15:33:30;;;;;;;4.90;4.30;;;;;;;2.15;80.90;98747.83;205335;1325;140206;-68
2022/02/02 15:38:38;;;;;;;6.70;5.20;;;;;;;2.15;81.08;98753.16;205664;1325;140211;-69
2022/02/02 16:05:14;;;;;;;5.60;4.50;;;;;;;2.08;80.88;98809.08;207013;1318;140221;-69
2022/02/02 16:10:25;;;;;;;8.30;5.10;;;;;;;2.03;81.16;98824.06;207475;1315;139828;-69
2022/02/02 16:15:37;;;;;;;5.50;4.20;;;;;;;1.97;81.01;98840.48;208133;1316;138656;-69
2022/02/02 16:31:57;;;;;;;8.70;4.20;;;;;;;1.90;80.97;98881.10;207974;1318;139414;-70
2022/02/02 16:37:07;;;;;;;8.50;6.00;;;;;;;1.81;80.80;98892.83;209026;1313;140461;-70
2022/02/02 16:47:34;;;;;;;4.30;3.70;;;;;;;1.78;80.91;98911.81;206288;1316;245561;-70
2022/02/02 16:53:01;;;;;;;6.40;3.90;;;;;;;1.73;80.62;98934.88;208664;1316;142507;-68
2022/02/02 17:24:08;;;;;;;5.40;3.10;;;;;;;1.73;80.59;98950.98;207812;1316;141456;-69
2022/02/02 17:30:43;;;;;;;6.20;4.10;;;;;;;1.45;80.55;99036.06;207193;1317;138817;-67
2022/02/02 17:41:24;;;;;;;7.10;3.90;;;;;;;1.35;80.16;99055.99;207092;1316;139103;-68
2022/02/02 17:58:31;;;;;;;8.10;3.30;;;;;;;1.16;80.17;99079.73;207129;1316;140465;-69
2022/02/02 18:14:44;;;;;;;8.60;4.20;;;;;;;0.89;80.29;99118.75;208136;1316;139849;-70
2022/02/02 18:19:18;;;;;;;7.60;4.20;;;;;;;0.87;80.43;99136.02;208265;1317;140961;-70
2022/02/02 18:24:28;;;;;;;8.70;3.60;;;;;;;0.84;80.38;99141.55;206923;1318;140949;-70
2022/02/02 18:35:15;;;;;;;8.50;4.80;;;;;;;0.78;80.06;99166.30;208264;1319;151176;-69
2022/02/02 18:50:53;;;;;;;7.60;5.00;;;;;;;0.80;80.67;99200.68;209535;1317;141315;-67
2022/02/02 18:56:29;;;;;;;;;;;;;;;;;;;;;
2022/02/02 19:01:48;;;;;;;5.10;4.40;;;;;;;0.84;80.46;99222.73;207409;1316;141677;-68
2022/02/02 19:40:14;;;;;;;8.00;3.80;;;;;;;0.82;80.51;99290.06;208191;1317;139523;-68
2022/02/02 19:55:41;;;;;;;8.20;4.60;;;;;;;0.90;80.81;99327.92;207417;1318;140716;-64
2022/02/02 20:06:39;;;;;;;6.00;4.20;;;;;;;0.92;80.46;99352.44;207375;1316;140252;-71
2022/02/02 20:11:44;;;;;;;;;;;;;;;0.94;80.74;99366.15;207078;1316;139891;-66
2022/02/02 20:16:49;;;;;;;6.20;4.30;;;;;;;0.94;80.79;99377.77;207780;1316;126740;-68
2022/02/02 20:22:08;;;;;;;6.50;3.90;;;;;;;0.94;80.75;99389.09;207817;1316;139452;-69
2022/02/02 20:27:22;;;;;;;9.80;4.60;;;;;;;0.93;80.85;99406.73;207834;1316;138612;-67
2022/02/02 20:32:29;;;;;;;7.00;3.80;;;;;;;0.96;80.79;99414.78;206903;1315;140614;-70
2022/02/02 20:37:32;;;;;;;4.70;4.20;;;;;;;0.97;80.80;99423.08;208014;1318;138908;-70
2022/02/02 20:42:52;;;;;;;6.20;3.70;;;;;;;0.98;80.75;99431.69;208617;1318;140038;-69
2022/02/02 21:04:50;;;;;;;6.70;4.70;;;;;;;1.11;80.68;99461.95;209016;1315;139588;-69
2022/02/02 21:10:05;;;;;;;12.70;6.60;;;;;;;1.11;80.62;99463.98;208933;1316;139518;-70
2022/02/02 21:15:22;;;;;;;6.40;4.30;;;;;;;1.14;80.32;99480.13;208317;1318;150848;-68
2022/02/02 21:30:58;;;;;;;13.00;6.90;;;;;;;1.17;80.77;99524.21;208859;1318;140043;-74
2022/02/02 21:36:00;;;;;;;11.80;6.10;;;;;;;1.22;80.57;99533.33;207243;1316;141086;-70
2022/02/02 21:41:16;;;;;;;15.30;6.90;;;;;;;1.22;80.63;99546.34;207617;1316;139702;-72
2022/02/02 21:46:24;;;;;;;9.70;6.00;;;;;;;1.19;80.77;99556.68;207896;1317;142410;-73
2022/02/02 21:51:35;;;;;;;15.90;8.30;;;;;;;1.16;80.67;99567.49;208169;1314;142045;-71
2022/02/02 21:56:44;;;;;;;13.40;6.50;;;;;;;1.15;80.46;99580.60;207546;1316;142125;-68
2022/02/02 22:01:48;;;;;;;8.70;5.60;;;;;;;1.16;80.66;99586.96;207373;1316;139121;-70
2022/02/02 22:06:56;;;;;;;11.30;5.70;;;;;;;1.14;80.83;99598.00;207244;1316;138695;-67
2022/02/02 22:11:59;;;;;;;11.80;6.50;;;;;;;1.07;80.68;99610.07;207721;1316;139660;-73
2022/02/02 22:17:04;;;;;;;10.70;6.00;;;;;;;1.07;80.83;99619.00;207873;1319;139171;-72
2022/02/02 22:22:20;;;;;;;11.70;6.30;;;;;;;1.07;80.64;99622.27;207701;1316;141900;-74
2022/02/02 22:27:23;;;;;;;13.00;5.90;;;;;;;1.04;80.83;99633.29;208247;1316;140819;-75
2022/02/02 22:32:26;;;;;;;13.50;6.00;;;;;;;1.02;80.91;99638.39;208447;1317;140898;-73
2022/02/02 22:37:29;;;;;;;10.60;6.40;;;;;;;0.99;80.74;99649.59;207209;1318;141141;-67
2022/02/02 22:42:34;;;;;;;15.10;6.30;;;;;;;1.00;80.77;99653.48;207254;1315;141500;-72
2022/02/02 22:47:37;;;;;;;7.80;5.90;;;;;;;1.02;80.91;99664.34;208997;1317;142105;-77
2022/02/02 22:52:48;;;;;;;9.10;5.20;;;;;;;1.02;80.68;99661.06;207292;1317;140463;-74
2022/02/02 22:57:54;;;;;;;7.60;4.60;;;;;;;0.97;80.87;99659.80;208620;1317;140012;-72
2022/02/02 23:02:59;;;;;;;9.80;5.70;;;;;;;0.97;81.08;99662.30;208920;1316;140828;-70
2022/02/02 23:08:05;;;;;;;11.00;5.90;;;;;;;1.03;80.98;99669.61;209373;1315;140397;-72
2022/02/02 23:13:10;;;;;;;9.80;6.80;;;;;;;1.08;80.97;99674.55;209600;1316;143658;-74
2022/02/02 23:18:49;;;;;;;9.50;5.70;;;;;;;1.11;80.78;99669.23;209625;1316;139993;-75
2022/02/02 23:23:48;;;;;;;16.20;6.90;;;;;;;1.10;80.74;99678.10;207543;1320;138968;-74
2022/02/02 23:28:57;;;;;;;12.30;9.30;;;;;;;1.11;80.59;99681.67;208194;1316;219932;-73
2022/02/02 23:34:11;;;;;;;11.80;6.70;;;;;;;1.10;80.92;99686.77;208190;1317;139938;-71
2022/02/02 23:39:17;;;;;;;10.00;7.00;;;;;;;1.08;80.48;99708.70;208274;1318;139921;-70
2022/02/02 23:44:20;;;;;;;12.90;5.40;;;;;;;1.05;80.83;99723.15;207463;1316;140060;-75
2022/02/02 23:49:36;;;;;;;7.50;4.70;;;;;;;1.05;80.80;99728.80;208182;1317;139271;-73
2022/02/02 23:54:45;;;;;;;12.80;6.00;;;;;;;0.98;80.95;99732.83;208486;1318;139880;-72
